D/T METAR WX W/DIR W/SPE G/SPE TEMP DEWP
19/03/19 03:50 EGDR 190350Z 27004KT 9999 FEW007 SCT040 BKN100 08/08 Q1026 BLU W (270°) 4.6mph 8°C 8°C
19/03/19 02:50 EGDR 190250Z 31005KT 9999 FEW008 SCT030 BKN100 08/08 Q1026 BLU NW (310°) 5.8mph 8°C 8°C
19/03/19 01:50 EGDR 190150Z 30004KT 9999 BKN028 BKN045 08/08 Q1027 BLU WNW (300°) 4.6mph 8°C 8°C
19/03/19 00:50 EGDR 190050Z 27005KT 9999 BKN026 08/08 Q1027 BLU W (270°) 5.8mph 8°C 8°C
18/03/19 23:50 EGDR 182350Z 28005KT 9999 BKN028 BKN100 08/08 Q1026 BLU W (280°) 5.8mph 8°C 8°C
18/03/19 22:50 EGDR 182250Z 25003KT 9999 FEW007 BKN100 BKN140 08/07 Q1026 BLU WSW (250°) 3.5mph 8°C 7°C
18/03/19 21:50 EGDR 182150Z 25002KT 9999 FEW007 SCT018 BKN120 08/07 Q1026 WHT TEMPO SCT006 YLO1 WSW (250°) 2.3mph 8°C 7°C
18/03/19 21:25 EGDR 182125Z 30004KT 9999 FEW007 SCT018 BKN120 08/07 Q1026 WHT TEMPO SCT006 YLO1 WNW (300°) 4.6mph 8°C 7°C
18/03/19 20:50 EGDR 182050Z 32005KT 9999 FEW007 SCT018 BKN100 08/07 Q1026 WHT TEMPO SCT006 YLO1 NW (320°) 5.8mph 8°C 7°C
18/03/19 20:24 EGDR 182024Z 34004KT 9999 FEW007 SCT018 BKN100 08/07 Q1026 WHT TEMPO SCT006 YLO1 NNW (340°) 4.6mph 8°C 7°C
18/03/19 19:50 EGDR 181950Z 31008KT 9999 FEW007 SCT018 BKN100 08/07 Q1025 WHT TEMPO SCT006 YLO1 NW (310°) 9.2mph 8°C 7°C
18/03/19 19:18 EGDR 181918Z 30008KT 9999 SCT007 SCT018 08/07 Q1025 GRN TEMPO SCT006 YLO1 WNW (300°) 9.2mph 8°C 7°C
18/03/19 18:50 EGDR 181850Z 30010KT 9999 SCT007 SCT018 08/07 Q1025 RERA GRN TEMPO SCT006 YLO1 WNW (300°) 11.5mph 8°C 7°C
18/03/19 18:24 EGDR 181824Z 30009KT 9999 -RA SCT007 SCT120 08/07 Q1025 GRN TEMPO SCT006 YLO1 -RA WNW (300°) 10.4mph 8°C 7°C
18/03/19 17:50 EGDR 181750Z 31010KT 9999 -RA SCT007 SCT070 09/07 Q1025 GRN TEMPO 7000 -SHRA SCT006 YLO1 -RA NW (310°) 11.5mph 9°C 7°C
18/03/19 17:18 EGDR 181718Z 30010KT 9999 -DZ FEW007 SCT010 BKN025 09/07 Q1024 GRN TEMPO 7000 -SHRA SCT006 YLO1 -DZ WNW (300°) 11.5mph 9°C 7°C
18/03/19 16:50 EGDR 181650Z 30010KT 9999 -DZ SCT010 SCT015 OVC035 09/07 Q1024 GRN TEMPO 7000 -SHRA SCT006 YLO1 -DZ WNW (300°) 11.5mph 9°C 7°C
18/03/19 16:16 EGDR 181616Z 30013KT 9999 -DZ SCT010 SCT015 OVC035 09/07 Q1024 GRN TEMPO 7000 -SHRA SCT006 YLO1 -DZ WNW (300°) 15.0mph 9°C 7°C
18/03/19 15:50 EGDR 181550Z 29013KT 9999 -DZ SCT010 SCT015 OVC035 09/08 Q1024 GRN TEMPO 7000 -SHRA SCT006 YLO1 -DZ WNW (290°) 15.0mph 9°C 8°C
18/03/19 15:13 EGDR 181513Z 29013KT 9999 -DZ SCT010 SCT015 OVC035 09/07 Q1024 GRN NOSIG -DZ WNW (290°) 15.0mph 9°C 7°C
18/03/19 14:50 EGDR 181450Z 29014KT 9999 -RA SCT010 SCT015 OVC035 09/07 Q1024 GRN NOSIG -RA WNW (290°) 16.1mph 9°C 7°C
18/03/19 14:14 EGDR 181414Z 29010KT 9999 -RADZ FEW010 SCT015 OVC030 09/08 Q1024 WHT TEMPO 7000 SCT012 GRN -RA -DZ WNW (290°) 11.5mph 9°C 8°C
18/03/19 13:50 EGDR 181350Z 28010KT 7000 -DZ FEW010 SCT015 BKN030 09/07 Q1024 WHT TEMPO 7000 SCTO12 GRN -DZ W (280°) 11.5mph 9°C 7°C
18/03/19 13:18 EGDR 181318Z 26011KT 9999 -RA FEW010 SCT015 OVC038 09/07 Q1024 WHT TEMPO 7000 SCT012 GRN -RA W (260°) 12.7mph 9°C 7°C
18/03/19 12:23 EGDR 181223Z 27008KT 9999 -RADZ FEW010 SCT015 OVC040 08/07 Q1024 WHT TEMPO 7000 -SHRA SCT012 GRN -RA -DZ W (270°) 9.2mph 8°C 7°C
18/03/19 11:50 EGDR 181150Z 26006KT 9999 -RADZ FEW010 SCT015 OVC040 08/06 Q1025 WHT TEMPO 7000 -SHRA SCT012 GRN -RA -DZ W (260°) 6.9mph 8°C 6°C
18/03/19 11:19 EGDR 181119Z 27007KT 9999 -RADZ FEW010 SCT015 OVC050 08/06 Q1025 WHT TEMPO 7000 -SHRA SCT012 GRN -RA -DZ W (270°) 8.1mph 8°C 6°C
18/03/19 10:50 EGDR 181050Z 29008KT 9999 -RADZ FEW012 SCT035 OVC050 08/06 Q1025 BLU BECMG 9999 FEW012 SCT018 WHT -RA -DZ WNW (290°) 9.2mph 8°C 6°C
18/03/19 10:25 EGDR 181025Z 28008KT 9999 -RADZ FEW012 SCT035 OVC070 07/06 Q1025 BLU BECMG 8000 -RA SCT012 GRN -RA -DZ W (280°) 9.2mph 7°C 6°C
18/03/19 09:50 EGDR 180950Z 28007KT 9999 -RADZ FEW014 OVC070 07/06 Q1024 BLU BECMG 8000 -RA SCT012 GRN -RA -DZ W (280°) 8.1mph 7°C 6°C
18/03/19 09:25 EGDR 180925Z 29009KT 9999 -RADZ FEW018 SCT050 OVC070 07/05 Q1024 BLU BECMG 8000 -RA SCT012 GRN -RA -DZ WNW (290°) 10.4mph 7°C 5°C
18/03/19 08:50 EGDR 180850Z 29009KT 9999 -RADZ FEW014 SCT050 OVC070 07/05 Q1024 BLU BECMG 8000 -RA SCT012 GRN -RA -DZ WNW (290°) 10.4mph 7°C 5°C
18/03/19 08:21 EGDR 180821Z 30006KT 9999 -RADZ FEW014 SCT030 OVC050 07/05 Q1024 BLU BECMG 8000 -RA SCT012 GRN -RA -DZ WNW (300°) 6.9mph 7°C 5°C
18/03/19 07:22 EGDR 180722Z 29003KT 9999 VCSH FEW014 OVC080 06/04 Q1023 BLU BECMG 8000 -RA SCT012 GRN VCSH WNW (290°) 3.5mph 6°C 4°C
18/03/19 06:50 EGDR 180650Z 29011G24KT 9999 -SHRA FEW014 SCT020 OVC030 06/04 Q1023 WHT BECMG 8000 -RA SCT012 GRN -SHRA WNW (290°) 12.7mph 27.6mph 6°C 4°C
18/03/19 05:50 EGDR 180550Z 30007KT 9999 FEW018 06/04 Q1023 BLU WNW (300°) 8.1mph 6°C 4°C
18/03/19 04:50 EGDR 180450Z 30010KT 9999 FEW022 07/04 Q1022 BLU WNW (300°) 11.5mph 7°C 4°C
18/03/19 03:50 EGDR 180350Z 31010KT 9999 FEW022 07/04 Q1022 BLU NW (310°) 11.5mph 7°C 4°C
18/03/19 02:50 EGDR 180250Z 30008KT 9999 FEW022 07/04 Q1022 BLU WNW (300°) 9.2mph 7°C 4°C
18/03/19 01:50 EGDR 180150Z AUTO 31013KT 9999 // FEW023/// BKN150/// 08/04 Q1022 NW (310°) 15.0mph 8°C 4°C
18/03/19 00:50 EGDR 180050Z AUTO 30011KT 9999 // SCT021/// 07/04 Q1022 WNW (300°) 12.7mph 7°C 4°C
17/03/19 23:50 EGDR 172350Z AUTO 31013KT 9999 // SCT022/// 08/04 Q1021 NW (310°) 15.0mph 8°C 4°C
17/03/19 22:50 EGDR 172250Z AUTO 31015KT 9999 // NCD 08/05 Q1021 NW (310°) 17.3mph 8°C 5°C
17/03/19 21:50 EGDR 172150Z AUTO 31017KT 9999 // FEW022/// 08/05 Q1020 NW (310°) 19.6mph 8°C 5°C
17/03/19 20:50 EGDR 172050Z AUTO 30017KT 9999 // BKN022/// 08/05 Q1019 WNW (300°) 19.6mph 8°C 5°C
17/03/19 19:50 EGDR 171950Z AUTO 30018KT 9999 // BKN024/// 08/04 Q1018 WNW (300°) 20.7mph 8°C 4°C
17/03/19 18:50 EGDR 171850Z AUTO 29019KT 9999 // FEW027/// BKN031/// BKN039/// 09/04 Q1018 WNW (290°) 21.9mph 9°C 4°C
17/03/19 17:50 EGDR 171750Z AUTO 29018KT 9999 // BKN031/// BKN038/// 09/04 Q1016 WNW (290°) 20.7mph 9°C 4°C
17/03/19 16:50 EGDR 171650Z AUTO 29023KT 9999 // FEW031/// 09/03 Q1016 WNW (290°) 26.5mph 9°C 3°C
17/03/19 15:50 EGDR 171550Z AUTO 29024KT 9999 // SCT030/// 09/03 Q1015 WNW (290°) 27.6mph 9°C 3°C
17/03/19 14:50 EGDR 171450Z AUTO 30024KT 9999 // SCT029/// 09/03 Q1014 WNW (300°) 27.6mph 9°C 3°C
17/03/19 13:50 EGDR 171350Z AUTO 31021G31KT 9999 // FEW028/// 08/02 Q1013 NW (310°) 24.2mph 35.7mph 8°C 2°C
17/03/19 12:50 EGDR 171250Z AUTO 31021KT 9999 // SCT025/// 08/03 Q1013 NW (310°) 24.2mph 8°C 3°C
17/03/19 11:50 EGDR 171150Z AUTO 31020KT 9999 // SCT023/// 08/03 Q1011 NW (310°) 23.0mph 8°C 3°C
17/03/19 10:50 EGDR 171050Z AUTO 27009G19KT 9999 // FEW017/// SCT029/// 07/06 Q1010 W (270°) 10.4mph 21.9mph 7°C 6°C
17/03/19 09:50 EGDR 170950Z AUTO 27008KT 9999 // SCT021/// 06/04 Q1010 W (270°) 9.2mph 6°C 4°C
17/03/19 08:50 EGDR 170850Z AUTO 27011KT 9999 // FEW015/// BKN060/// 05/03 Q1009 W (270°) 12.7mph 5°C 3°C
17/03/19 07:50 EGDR 170750Z AUTO 28017KT 9999 // SCT060/// 06/01 Q1008 W (280°) 19.6mph 6°C 1°C
17/03/19 06:50 EGDR 170650Z AUTO 28012KT 9999 // NCD 05/01 Q1008 W (280°) 13.8mph 5°C 1°C
17/03/19 05:50 EGDR 170550Z AUTO 28014KT 9999 // NCD 05/01 Q1007 W (280°) 16.1mph 5°C 1°C
17/03/19 04:50 EGDR 170450Z AUTO 28015KT 9999 // NCD 04/01 Q1006 W (280°) 17.3mph 4°C 1°C
17/03/19 03:50 EGDR 170350Z AUTO 28013KT 9999 // SCT070/// 04/02 Q1005 W (280°) 15.0mph 4°C 2°C
17/03/19 02:50 EGDR 170250Z AUTO 29015KT 9999 // SCT027/// SCT150/// 04/01 Q1005 WNW (290°) 17.3mph 4°C 1°C
17/03/19 01:50 EGDR 170150Z AUTO 29015KT 9999 // SCT130/// 06/01 Q1004 WNW (290°) 17.3mph 6°C 1°C
17/03/19 00:50 EGDR 170050Z AUTO 28015KT 9999 // FEW031/// 06/02 Q1004 W (280°) 17.3mph 6°C 2°C
16/03/19 23:50 EGDR 162350Z AUTO 28018G28KT 9999 // FEW041/// 06/02 Q1003 W (280°) 20.7mph 32.2mph 6°C 2°C
16/03/19 22:50 EGDR 162250Z AUTO 29016KT 9999 // FEW100/// 06/03 Q1003 WNW (290°) 18.4mph 6°C 3°C
16/03/19 21:50 EGDR 162150Z AUTO 29018KT 9999 // BKN080/// 07/03 Q1002 WNW (290°) 20.7mph 7°C 3°C
16/03/19 20:50 EGDR 162050Z AUTO 28015KT 9999 // FEW023/// SCT080/// 07/05 Q1001 W (280°) 17.3mph 7°C 5°C
16/03/19 19:50 EGDR 161950Z AUTO 28015KT 9999 // FEW025/// BKN050/// 07/06 Q1000 W (280°) 17.3mph 7°C 6°C
16/03/19 18:50 EGDR 161850Z AUTO 26017G29KT 4900 // BKN006/// 08/07 Q0999 W (260°) 19.6mph 33.4mph 8°C 7°C
16/03/19 17:50 EGDR 161750Z AUTO 27018KT 6000 // SCT006/// BKN036/// 08/08 Q0999 W (270°) 20.7mph 8°C 8°C
16/03/19 16:50 EGDR 161650Z AUTO 22033G45KT 2900 // BKN003/// 10/09 Q0998 SW (220°) 38.0mph 51.8mph 10°C 9°C
16/03/19 15:50 EGDR 161550Z AUTO 22035G45KT 6000 // OVC008/// 10/09 Q0999 SW (220°) 40.3mph 51.8mph 10°C 9°C
16/03/19 14:50 EGDR 161450Z AUTO 21035G46KT 9999 // BKN015/// 11/08 Q1000 SSW (210°) 40.3mph 52.9mph 11°C 8°C
16/03/19 13:50 EGDR 161350Z AUTO 21031G43KT 9999 // BKN023/// BKN032/// 11/08 Q1001 SSW (210°) 35.7mph 49.5mph 11°C 8°C
16/03/19 12:50 EGDR 161250Z AUTO 21032G42KT 9999 // SCT017/// BKN031/// 11/08 Q1003 SSW (210°) 36.8mph 48.3mph 11°C 8°C
16/03/19 11:50 EGDR 161150Z AUTO 22028KT 9999 // FEW017/// BKN028/// 11/08 Q1005 SW (220°) 32.2mph 11°C 8°C
16/03/19 10:50 EGDR 161050Z AUTO 22030G40KT 8000 // BKN013/// BKN030/// 10/08 Q1006 SW (220°) 34.5mph 46.0mph 10°C 8°C
16/03/19 09:50 EGDR 160950Z AUTO 22028KT 9999 // OVC018/// 10/08 Q1006 SW (220°) 32.2mph 10°C 8°C
16/03/19 08:50 EGDR 160850Z AUTO 22030G40KT 9999 // FEW018/// BKN023/// 10/07 Q1007 SW (220°) 34.5mph 46.0mph 10°C 7°C
16/03/19 07:50 EGDR 160750Z AUTO 22028KT 9999 // FEW013/// BKN023/// 10/08 Q1007 SW (220°) 32.2mph 10°C 8°C
16/03/19 06:50 EGDR 160650Z AUTO 22031KT 9999 // FEW014/// BKN022/// 10/08 Q1008 SW (220°) 35.7mph 10°C 8°C
16/03/19 05:50 EGDR 160550Z AUTO 23030G40KT 9999 // BKN010/// SCT021/// 10/08 Q1009 SW (230°) 34.5mph 46.0mph 10°C 8°C
16/03/19 04:50 EGDR 160450Z AUTO 23031G41KT 9999 // BKN026/// 10/08 Q1010 SW (230°) 35.7mph 47.2mph 10°C 8°C
16/03/19 03:50 EGDR 160350Z AUTO 23030KT 9999 // FEW015/// BKN026/// 10/08 Q1010 SW (230°) 34.5mph 10°C 8°C
16/03/19 02:50 EGDR 160250Z AUTO 23027KT 9999 // BKN013/// BKN021/// 10/09 Q1011 SW (230°) 31.1mph 10°C 9°C
16/03/19 01:50 EGDR 160150Z AUTO 23026KT 9999 // BKN008/// BKN022/// 10/09 Q1012 SW (230°) 29.9mph 10°C 9°C
16/03/19 00:50 EGDR 160050Z AUTO 23024KT 9999 // BKN007/// SCT016/// 10/09 Q1013 SW (230°) 27.6mph 10°C 9°C
15/03/19 23:50 EGDR 152350Z AUTO 23024KT 9999 // BKN006/// BKN016/// 10/09 Q1013 SW (230°) 27.6mph 10°C 9°C
15/03/19 22:50 EGDR 152250Z AUTO 23020KT 9999 // OVC013/// 10/09 Q1014 SW (230°) 23.0mph 10°C 9°C
15/03/19 21:50 EGDR 152150Z AUTO 24015G26KT 9999 // OVC010/// 10/09 Q1015 WSW (240°) 17.3mph 29.9mph 10°C 9°C
15/03/19 20:50 EGDR 152050Z AUTO 25014G26KT 9999 // OVC011/// 10/09 Q1015 WSW (250°) 16.1mph 29.9mph 10°C 9°C
15/03/19 19:50 EGDR 151950Z AUTO 25014G24KT 9999 // OVC009/// 11/09 Q1015 WSW (250°) 16.1mph 27.6mph 11°C 9°C
15/03/19 18:50 EGDR 151850Z AUTO 25014G26KT 9999 // OVC007/// 10/09 Q1015 WSW (250°) 16.1mph 29.9mph 10°C 9°C
15/03/19 17:50 EGDR 151750Z AUTO 25015G26KT 9999 // OVC003/// 10/10 Q1015 WSW (250°) 17.3mph 29.9mph 10°C 10°C
15/03/19 16:50 EGDR 151650Z AUTO 25015G28KT 8000 // OVC003/// 10/10 Q1015 WSW (250°) 17.3mph 32.2mph 10°C 10°C
15/03/19 15:50 EGDR 151550Z AUTO 25017G27KT 9000 // OVC005/// 10/09 Q1015 WSW (250°) 19.6mph 31.1mph 10°C 9°C
15/03/19 14:50 EGDR 151450Z AUTO 25017G29KT 9999 // BKN009/// BKN016/// 11/10 Q1015 WSW (250°) 19.6mph 33.4mph 11°C 10°C
15/03/19 13:50 EGDR 151350Z AUTO 26020G33KT 9999 // OVC008/// 11/09 Q1015 W (260°) 23.0mph 38.0mph 11°C 9°C
15/03/19 12:50 EGDR 151250Z 26017G35KT 9999 SCT008 OVC016 11/10 Q1015 GRN NOSIG W (260°) 19.6mph 40.3mph 11°C 10°C
15/03/19 12:23 EGDR 151223Z 26017G33KT 9999 SCT008 OVC016 11/10 Q1015 GRN NOSIG W (260°) 19.6mph 38.0mph 11°C 10°C
15/03/19 11:25 EGDR 151125Z 26019G36KT 9000 HZ SCT006 BKN014 11/10 Q1015 YLO1 TEMPO 3000 -RADZ FEW002 SCT003 YLO2 HZ W (260°) 21.9mph 41.4mph 11°C 10°C
15/03/19 10:50 EGDR 151050Z 26018G36KT 9000 HZ SCT005 BKN014 11/10 Q1015 REDZ YLO1 TEMPO 3000 -RADZ FEW002 SCT003 YLO2 HZ W (260°) 20.7mph 41.4mph 11°C 10°C
15/03/19 10:27 EGDR 151027Z 26019G36KT 8000 HZ BKN004 BKN008 11/10 Q1015 REDZ YLO2 NOSIG HZ W (260°) 21.9mph 41.4mph 11°C 10°C
15/03/19 09:50 EGDR 150950Z 26018G33KT 5000 -DZ SCT003 BKN008 11/10 Q1015 YLO2 NOSIG -DZ W (260°) 20.7mph 38.0mph 11°C 10°C
15/03/19 08:50 EGDR 150850Z 26021G37KT 4000 -DZ SCT003 OVC006 11/10 Q1014 YLO2 NOSIG -DZ W (260°) 24.2mph 42.6mph 11°C 10°C
15/03/19 07:50 EGDR 150750Z 26022G40KT 8000 HZ FEW003 BKN006 BKN012 11/10 Q1014 RERA YLO1 TEMPO 3000 -RADZ FEW002 SCT003 YLO2 HZ W (260°) 25.3mph 46.0mph 11°C 10°C
15/03/19 07:22 EGDR 150722Z 26022G38KT 4500 HZ FEW003 BKN006 BKN012 11/10 Q1014 RERA YLO1 TEMPO 3000 -RADZ FEW002 SCT003 YLO2 HZ W (260°) 25.3mph 43.7mph 11°C 10°C
15/03/19 06:50 EGDR 150650Z 27024G36KT 8000 -RADZ BKN006 BKN010 11/10 Q1014 YLO1 -RA -DZ W (270°) 27.6mph 41.4mph 11°C 10°C
15/03/19 05:50 EGDR 150550Z 27024G39KT 8000 -RA BKN006 BKN008 11/10 Q1014 YLO1 -RA W (270°) 27.6mph 44.9mph 11°C 10°C
15/03/19 04:50 EGDR 150450Z 27025G37KT 8000 -RADZ BKN006 BKN008 11/10 Q1014 YLO1 -RA -DZ W (270°) 28.8mph 42.6mph 11°C 10°C
15/03/19 03:50 EGDR 150350Z 26022G40KT 9999 HZ SCT006 OVC008 11/10 Q1014 REDZ YLO1 HZ W (260°) 25.3mph 46.0mph 11°C 10°C
15/03/19 02:50 EGDR 150250Z 27024G39KT 9999 -DZ SCT006 OVC008 11/10 Q1014 YLO1 -DZ W (270°) 27.6mph 44.9mph 11°C 10°C
15/03/19 01:50 EGDR 150150Z 27023G38KT 7000 HZ BKN008 OVC016 11/09 Q1015 GRN HZ W (270°) 26.5mph 43.7mph 11°C 9°C
15/03/19 00:50 EGDR 150050Z 27024G40KT 9999 SCT006 OVC008 11/10 Q1015 YLO1 W (270°) 27.6mph 46.0mph 11°C 10°C
14/03/19 23:50 EGDR 142350Z 26024G40KT 9999 BKN005 OVC007 11/10 Q1015 YLO1 W (260°) 27.6mph 46.0mph 11°C 10°C
14/03/19 22:50 EGDR 142250Z 27022G38KT 9999 OVC007 11/10 Q1015 GRN W (270°) 25.3mph 43.7mph 11°C 10°C
14/03/19 21:50 EGDR 142150Z 27024G37KT 6000 HZ SCT005 OVC007 11/10 Q1015 YLO1 HZ W (270°) 27.6mph 42.6mph 11°C 10°C
14/03/19 20:50 EGDR 142050Z 27022G35KT 6000 HZ SCT005 OVC008 11/10 Q1015 YLO1 HZ W (270°) 25.3mph 40.3mph 11°C 10°C
14/03/19 19:50 EGDR 141950Z 27022G36KT 4000 BR FEW002 OVC004 11/10 Q1015 YLO2 BR W (270°) 25.3mph 41.4mph 11°C 10°C
14/03/19 18:50 EGDR 141850Z 28021G38KT 2500 -DZ FEW001 SCT002 OVC003 11/10 Q1014 AMB -DZ W (280°) 24.2mph 43.7mph 11°C 10°C
14/03/19 17:50 EGDR 141750Z 27020G31KT 2000 -RADZ SCT001 OVC002 11/10 Q1014 RED -RA -DZ W (270°) 23.0mph 35.7mph 11°C 10°C
14/03/19 16:50 EGDR 141650Z 27019G32KT 2000 -RADZ SCT001 OVC002 11/10 Q1014 RED -RA -DZ W (270°) 21.9mph 36.8mph 11°C 10°C
14/03/19 15:50 EGDR 141550Z 27019G31KT 3000 -RADZ SCT001 OVC003 11/10 Q1014 RED -RA -DZ W (270°) 21.9mph 35.7mph 11°C 10°C
14/03/19 14:50 EGDR 141450Z 27026G36KT 3000 -RADZ SCT001 OVC003 11/10 Q1014 RED NOSIG -RA -DZ W (270°) 29.9mph 41.4mph 11°C 10°C
14/03/19 14:22 EGDR 141422Z 27019G31KT 3000 -RADZ SCT001 OVC003 11/11 Q1014 RED NOSIG -RA -DZ W (270°) 21.9mph 35.7mph 11°C 11°C
14/03/19 13:50 EGDR 141350Z 27020G34KT 3000 -RADZ SCT001 OVC003 11/11 Q1014 RED NOSIG -RA -DZ W (270°) 23.0mph 39.1mph 11°C 11°C
14/03/19 13:26 EGDR 141326Z 27020G38KT 3000 -RADZ SCT001 OVC003 11/10 Q1014 RED NOSIG -RA -DZ W (270°) 23.0mph 43.7mph 11°C 10°C
14/03/19 12:50 EGDR 141250Z 27022G36KT 3000 -RADZ SCT001 OVC003 11/10 Q1014 RED NOSIG -RA -DZ W (270°) 25.3mph 41.4mph 11°C 10°C
14/03/19 12:23 EGDR 141223Z 27021G33KT 3000 -RADZ SCT001 OVC003 11/11 Q1014 RED NOSIG -RA -DZ W (270°) 24.2mph 38.0mph 11°C 11°C
14/03/19 11:50 EGDR 141150Z 27022G37KT 2400 -RADZ SCT001 OVC003 11/10 Q1013 RED NOSIG -RA -DZ W (270°) 25.3mph 42.6mph 11°C 10°C
14/03/19 11:19 EGDR 141119Z 27023G42KT 2400 -RADZ SCT001 OVC003 11/10 Q1013 RED NOSIG -RA -DZ W (270°) 26.5mph 48.3mph 11°C 10°C
14/03/19 10:50 EGDR 141050Z 27022G39KT 2000 -RADZ SCT001 OVC003 10/10 Q1013 RED NOSIG -RA -DZ W (270°) 25.3mph 44.9mph 10°C 10°C
14/03/19 10:27 EGDR 141027Z 27025G40KT 2200 -RADZ SCT001 BKN003 10/10 Q1013 RED NOSIG -RA -DZ W (270°) 28.8mph 46.0mph 10°C 10°C
14/03/19 09:50 EGDR 140950Z 27025G41KT 1200 -RADZ FEW000 SCT001 BKN006 10/10 Q1013 RED NOSIG -RA -DZ W (270°) 28.8mph 47.2mph 10°C 10°C
14/03/19 08:50 EGDR 140850Z 27022G41KT 4000 -RADZ FEW002 OVC004 10/09 Q1013 YLO2 TEMPO 0800 DZ FG SCT001 RED -RA -DZ W (270°) 25.3mph 47.2mph 10°C 9°C
14/03/19 07:50 EGDR 140750Z AUTO 26027G40KT 6000 // OVC005/// 10/09 Q1013 W (260°) 31.1mph 46.0mph 10°C 9°C
14/03/19 07:23 EGDR 140723Z 26022G38KT 4000 -RADZ FEW004 BKN006 OVC010 10/09 Q1013 YLO1 TEMPO 0800 DZ FG SCT001 RED -RA -DZ W (260°) 25.3mph 43.7mph 10°C 9°C
14/03/19 06:50 EGDR 140650Z 26022G37KT 6000 HZ FEW004 BKN007 BKN012 10/08 Q1013 GRN HZ W (260°) 25.3mph 42.6mph 10°C 8°C
14/03/19 05:50 EGDR 140550Z 26024G42KT 9999 FEW008 SCT012 BKN018 10/08 Q1014 GRN W (260°) 27.6mph 48.3mph 10°C 8°C
14/03/19 04:50 EGDR 140450Z 26018G38KT 9999 SCT014 BKN020 10/07 Q1014 GRN W (260°) 20.7mph 43.7mph 10°C 7°C
14/03/19 03:50 EGDR 140350Z AUTO 26024G34KT 9999 // BKN014/// BKN021/// 10/07 Q1016 W (260°) 27.6mph 39.1mph 10°C 7°C
14/03/19 02:50 EGDR 140250Z AUTO 25017G30KT 9999 // BKN013/// SCT021/// 09/07 Q1017 WSW (250°) 19.6mph 34.5mph 9°C 7°C